sensor_id;sensor_type;location;lat;lon;timestamp;P1;durP1;ratioP1;P2;durP2;ratioP2
22754;SDS011;11544;42.020;23.094;2023-03-31T00:01:06;2.20;;;1.42;;
22754;SDS011;11544;42.020;23.094;2023-03-31T00:03:33;1.90;;;1.38;;
22754;SDS011;11544;42.020;23.094;2023-03-31T00:06:04;3.63;;;1.42;;
22754;SDS011;11544;42.020;23.094;2023-03-31T00:08:32;3.22;;;1.40;;
22754;SDS011;11544;42.020;23.094;2023-03-31T00:11:04;3.38;;;1.65;;
22754;SDS011;11544;42.020;23.094;2023-03-31T00:13:35;2.78;;;1.45;;
22754;SDS011;11544;42.020;23.094;2023-03-31T00:16:03;3.90;;;1.60;;
22754;SDS011;11544;42.020;23.094;2023-03-31T00:18:33;2.45;;;1.42;;
22754;SDS011;11544;42.020;23.094;2023-03-31T00:21:12;3.33;;;1.60;;
22754;SDS011;11544;42.020;23.094;2023-03-31T00:23:55;1.60;;;1.13;;
22754;SDS011;11544;42.020;23.094;2023-03-31T00:26:23;3.42;;;1.30;;
22754;SDS011;11544;42.020;23.094;2023-03-31T00:28:51;1.58;;;1.17;;
22754;SDS011;11544;42.020;23.094;2023-03-31T00:31:19;1.52;;;1.10;;
22754;SDS011;11544;42.020;23.094;2023-03-31T00:33:47;2.85;;;1.20;;
22754;SDS011;11544;42.020;23.094;2023-03-31T00:36:16;3.55;;;1.20;;
22754;SDS011;11544;42.020;23.094;2023-03-31T00:39:09;3.30;;;1.30;;
22754;SDS011;11544;42.020;23.094;2023-03-31T00:41:37;3.15;;;1.60;;
22754;SDS011;11544;42.020;23.094;2023-03-31T00:44:10;3.65;;;3.30;;
22754;SDS011;11544;42.020;23.094;2023-03-31T00:46:58;2.88;;;1.52;;
22754;SDS011;11544;42.020;23.094;2023-03-31T00:49:47;3.63;;;1.73;;
22754;SDS011;11544;42.020;23.094;2023-03-31T00:52:19;2.78;;;1.45;;
22754;SDS011;11544;42.020;23.094;2023-03-31T00:54:59;1.83;;;1.08;;
22754;SDS011;11544;42.020;23.094;2023-03-31T00:57:31;2.30;;;1.30;;
22754;SDS011;11544;42.020;23.094;2023-03-31T01:00:05;1.98;;;1.25;;
22754;SDS011;11544;42.020;23.094;2023-03-31T01:02:49;2.97;;;1.50;;
22754;SDS011;11544;42.020;23.094;2023-03-31T01:05:22;1.55;;;1.10;;
22754;SDS011;11544;42.020;23.094;2023-03-31T01:07:52;2.08;;;1.33;;
22754;SDS011;11544;42.020;23.094;2023-03-31T01:10:21;5.35;;;1.50;;
22754;SDS011;11544;42.020;23.094;2023-03-31T01:12:49;7.05;;;1.70;;
22754;SDS011;11544;42.020;23.094;2023-03-31T01:15:19;2.83;;;1.63;;
22754;SDS011;11544;42.020;23.094;2023-03-31T01:17:47;3.13;;;1.55;;
22754;SDS011;11544;42.020;23.094;2023-03-31T01:31:32;7.10;;;2.20;;
22754;SDS011;11544;42.020;23.094;2023-03-31T01:34:42;5.18;;;2.30;;
22754;SDS011;11544;42.020;23.094;2023-03-31T01:37:32;6.25;;;2.53;;
22754;SDS011;11544;42.020;23.094;2023-03-31T01:42:58;4.50;;;2.15;;
22754;SDS011;11544;42.020;23.094;2023-03-31T01:48:12;3.97;;;1.70;;
22754;SDS011;11544;42.020;23.094;2023-03-31T01:50:48;4.00;;;1.70;;
22754;SDS011;11544;42.020;23.094;2023-03-31T01:53:26;2.80;;;1.20;;
22754;SDS011;11544;42.020;23.094;2023-03-31T01:56:06;5.40;;;1.48;;
22754;SDS011;11544;42.020;23.094;2023-03-31T01:58:48;2.53;;;1.35;;
22754;SDS011;11544;42.020;23.094;2023-03-31T02:04:02;2.60;;;1.00;;
22754;SDS011;11544;42.020;23.094;2023-03-31T02:06:36;2.97;;;1.55;;
22754;SDS011;11544;42.020;23.094;2023-03-31T02:09:10;2.30;;;1.13;;
22754;SDS011;11544;42.020;23.094;2023-03-31T02:11:42;2.90;;;1.40;;
22754;SDS011;11544;42.020;23.094;2023-03-31T02:14:11;2.58;;;1.33;;
22754;SDS011;11544;42.020;23.094;2023-03-31T02:16:44;2.67;;;1.48;;
22754;SDS011;11544;42.020;23.094;2023-03-31T02:19:16;2.70;;;1.50;;
22754;SDS011;11544;42.020;23.094;2023-03-31T02:21:46;4.88;;;2.00;;
22754;SDS011;11544;42.020;23.094;2023-03-31T02:24:15;2.00;;;1.23;;
22754;SDS011;11544;42.020;23.094;2023-03-31T02:26:50;2.40;;;1.55;;
22754;SDS011;11544;42.020;23.094;2023-03-31T02:29:26;3.95;;;1.50;;
22754;SDS011;11544;42.020;23.094;2023-03-31T02:34:45;5.50;;;3.25;;
22754;SDS011;11544;42.020;23.094;2023-03-31T02:37:12;16.80;;;10.85;;
22754;SDS011;11544;42.020;23.094;2023-03-31T02:39:40;5.18;;;2.40;;
22754;SDS011;11544;42.020;23.094;2023-03-31T02:42:11;2.63;;;1.65;;
22754;SDS011;11544;42.020;23.094;2023-03-31T02:44:39;3.60;;;2.00;;
22754;SDS011;11544;42.020;23.094;2023-03-31T02:47:07;3.13;;;1.58;;
22754;SDS011;11544;42.020;23.094;2023-03-31T02:49:37;2.00;;;1.27;;
22754;SDS011;11544;42.020;23.094;2023-03-31T02:57:39;2.80;;;1.38;;
22754;SDS011;11544;42.020;23.094;2023-03-31T03:00:32;4.93;;;2.05;;
22754;SDS011;11544;42.020;23.094;2023-03-31T03:06:17;4.05;;;1.65;;
22754;SDS011;11544;42.020;23.094;2023-03-31T03:14:27;4.65;;;1.48;;
22754;SDS011;11544;42.020;23.094;2023-03-31T03:17:03;2.72;;;1.80;;
22754;SDS011;11544;42.020;23.094;2023-03-31T03:19:35;2.55;;;1.38;;
22754;SDS011;11544;42.020;23.094;2023-03-31T03:22:03;4.43;;;2.13;;
22754;SDS011;11544;42.020;23.094;2023-03-31T03:24:32;3.00;;;1.48;;
22754;SDS011;11544;42.020;23.094;2023-03-31T03:27:01;3.00;;;1.48;;
22754;SDS011;11544;42.020;23.094;2023-03-31T03:29:29;2.97;;;1.33;;
22754;SDS011;11544;42.020;23.094;2023-03-31T03:31:56;4.82;;;1.45;;
22754;SDS011;11544;42.020;23.094;2023-03-31T03:34:23;2.35;;;2.03;;
22754;SDS011;11544;42.020;23.094;2023-03-31T03:36:51;2.47;;;1.95;;
22754;SDS011;11544;42.020;23.094;2023-03-31T03:39:17;2.50;;;1.90;;
22754;SDS011;11544;42.020;23.094;2023-03-31T03:41:44;3.58;;;1.75;;
22754;SDS011;11544;42.020;23.094;2023-03-31T03:44:12;2.13;;;1.40;;
22754;SDS011;11544;42.020;23.094;2023-03-31T03:46:39;4.15;;;1.67;;
22754;SDS011;11544;42.020;23.094;2023-03-31T03:49:06;7.80;;;1.92;;
22754;SDS011;11544;42.020;23.094;2023-03-31T03:51:33;5.88;;;2.20;;
22754;SDS011;11544;42.020;23.094;2023-03-31T03:54:03;4.32;;;2.28;;
22754;SDS011;11544;42.020;23.094;2023-03-31T03:56:31;6.32;;;2.20;;
22754;SDS011;11544;42.020;23.094;2023-03-31T03:58:58;4.10;;;2.75;;
22754;SDS011;11544;42.020;23.094;2023-03-31T04:01:25;4.72;;;2.10;;
22754;SDS011;11544;42.020;23.094;2023-03-31T04:03:52;5.30;;;3.10;;
22754;SDS011;11544;42.020;23.094;2023-03-31T04:06:19;7.35;;;3.40;;
22754;SDS011;11544;42.020;23.094;2023-03-31T04:08:46;6.88;;;3.30;;
22754;SDS011;11544;42.020;23.094;2023-03-31T04:11:21;4.38;;;3.30;;
22754;SDS011;11544;42.020;23.094;2023-03-31T04:13:48;6.18;;;3.55;;
22754;SDS011;11544;42.020;23.094;2023-03-31T04:16:15;5.22;;;2.85;;
22754;SDS011;11544;42.020;23.094;2023-03-31T04:18:45;7.47;;;3.25;;
22754;SDS011;11544;42.020;23.094;2023-03-31T04:21:14;5.13;;;2.78;;
22754;SDS011;11544;42.020;23.094;2023-03-31T04:23:53;4.80;;;2.75;;
22754;SDS011;11544;42.020;23.094;2023-03-31T04:26:33;4.95;;;2.95;;
22754;SDS011;11544;42.020;23.094;2023-03-31T04:29:10;6.55;;;3.65;;
22754;SDS011;11544;42.020;23.094;2023-03-31T04:31:38;8.27;;;4.10;;
22754;SDS011;11544;42.020;23.094;2023-03-31T04:34:09;7.30;;;5.00;;
22754;SDS011;11544;42.020;23.094;2023-03-31T04:36:44;8.35;;;5.70;;
22754;SDS011;11544;42.020;23.094;2023-03-31T04:39:18;8.13;;;3.85;;
22754;SDS011;11544;42.020;23.094;2023-03-31T04:41:52;8.27;;;3.45;;
22754;SDS011;11544;42.020;23.094;2023-03-31T04:44:19;5.20;;;3.22;;
22754;SDS011;11544;42.020;23.094;2023-03-31T04:46:46;6.32;;;4.05;;
22754;SDS011;11544;42.020;23.094;2023-03-31T04:49:13;10.50;;;4.80;;
22754;SDS011;11544;42.020;23.094;2023-03-31T04:51:40;10.63;;;5.43;;
22754;SDS011;11544;42.020;23.094;2023-03-31T04:54:07;7.13;;;4.50;;
22754;SDS011;11544;42.020;23.094;2023-03-31T04:56:34;11.25;;;4.30;;
22754;SDS011;11544;42.020;23.094;2023-03-31T04:59:01;7.95;;;4.38;;
22754;SDS011;11544;42.020;23.094;2023-03-31T05:01:30;7.80;;;4.35;;
22754;SDS011;11544;42.020;23.094;2023-03-31T05:04:09;6.03;;;3.33;;
22754;SDS011;11544;42.020;23.094;2023-03-31T05:09:56;6.53;;;3.35;;
22754;SDS011;11544;42.020;23.094;2023-03-31T05:12:23;7.20;;;4.07;;
22754;SDS011;11544;42.020;23.094;2023-03-31T05:14:54;5.07;;;3.20;;
22754;SDS011;11544;42.020;23.094;2023-03-31T05:17:22;3.97;;;2.90;;
22754;SDS011;11544;42.020;23.094;2023-03-31T05:19:53;5.72;;;2.42;;
22754;SDS011;11544;42.020;23.094;2023-03-31T05:22:21;4.30;;;2.65;;
22754;SDS011;11544;42.020;23.094;2023-03-31T05:24:52;4.10;;;3.00;;
22754;SDS011;11544;42.020;23.094;2023-03-31T05:27:22;3.95;;;3.30;;
22754;SDS011;11544;42.020;23.094;2023-03-31T05:30:03;4.30;;;2.85;;
22754;SDS011;11544;42.020;23.094;2023-03-31T05:32:36;7.35;;;3.25;;
22754;SDS011;11544;42.020;23.094;2023-03-31T05:35:03;6.88;;;2.95;;
22754;SDS011;11544;42.020;23.094;2023-03-31T05:37:30;4.35;;;2.58;;
22754;SDS011;11544;42.020;23.094;2023-03-31T05:39:58;4.13;;;2.08;;
22754;SDS011;11544;42.020;23.094;2023-03-31T05:42:26;6.10;;;2.70;;
22754;SDS011;11544;42.020;23.094;2023-03-31T05:44:53;5.18;;;3.20;;
22754;SDS011;11544;42.020;23.094;2023-03-31T05:47:20;3.83;;;2.60;;
22754;SDS011;11544;42.020;23.094;2023-03-31T05:49:48;6.47;;;2.22;;
22754;SDS011;11544;42.020;23.094;2023-03-31T05:52:18;4.65;;;2.38;;
22754;SDS011;11544;42.020;23.094;2023-03-31T05:54:45;2.72;;;1.90;;
22754;SDS011;11544;42.020;23.094;2023-03-31T05:57:17;6.28;;;2.38;;
22754;SDS011;11544;42.020;23.094;2023-03-31T05:59:54;3.17;;;1.88;;
22754;SDS011;11544;42.020;23.094;2023-03-31T06:02:31;2.83;;;2.13;;
22754;SDS011;11544;42.020;23.094;2023-03-31T06:04:59;4.38;;;2.60;;
22754;SDS011;11544;42.020;23.094;2023-03-31T06:07:30;5.80;;;2.25;;
22754;SDS011;11544;42.020;23.094;2023-03-31T06:09:57;4.43;;;3.00;;
22754;SDS011;11544;42.020;23.094;2023-03-31T06:12:35;9.10;;;4.20;;
22754;SDS011;11544;42.020;23.094;2023-03-31T06:15:06;5.22;;;2.92;;
22754;SDS011;11544;42.020;23.094;2023-03-31T06:17:47;6.82;;;3.92;;
22754;SDS011;11544;42.020;23.094;2023-03-31T06:20:21;24.67;;;4.93;;
22754;SDS011;11544;42.020;23.094;2023-03-31T06:22:53;7.22;;;4.15;;
22754;SDS011;11544;42.020;23.094;2023-03-31T06:25:21;13.60;;;6.28;;
22754;SDS011;11544;42.020;23.094;2023-03-31T06:27:51;11.43;;;5.30;;
22754;SDS011;11544;42.020;23.094;2023-03-31T06:30:18;10.40;;;4.88;;
22754;SDS011;11544;42.020;23.094;2023-03-31T06:32:45;10.85;;;4.65;;
22754;SDS011;11544;42.020;23.094;2023-03-31T06:35:13;12.77;;;5.10;;
22754;SDS011;11544;42.020;23.094;2023-03-31T06:37:40;13.25;;;6.47;;
22754;SDS011;11544;42.020;23.094;2023-03-31T06:40:08;8.05;;;5.20;;
22754;SDS011;11544;42.020;23.094;2023-03-31T06:42:37;17.05;;;4.72;;
22754;SDS011;11544;42.020;23.094;2023-03-31T06:45:05;11.10;;;5.28;;
22754;SDS011;11544;42.020;23.094;2023-03-31T06:47:36;9.57;;;4.97;;
22754;SDS011;11544;42.020;23.094;2023-03-31T06:50:08;14.23;;;5.70;;
22754;SDS011;11544;42.020;23.094;2023-03-31T06:52:35;12.15;;;6.15;;
22754;SDS011;11544;42.020;23.094;2023-03-31T06:55:02;13.90;;;6.05;;
22754;SDS011;11544;42.020;23.094;2023-03-31T06:57:29;19.20;;;6.35;;
22754;SDS011;11544;42.020;23.094;2023-03-31T06:59:59;13.07;;;5.40;;
22754;SDS011;11544;42.020;23.094;2023-03-31T07:02:27;12.40;;;6.00;;
22754;SDS011;11544;42.020;23.094;2023-03-31T07:04:54;11.68;;;5.53;;
22754;SDS011;11544;42.020;23.094;2023-03-31T07:07:30;11.48;;;6.05;;
22754;SDS011;11544;42.020;23.094;2023-03-31T07:09:58;10.30;;;4.95;;
22754;SDS011;11544;42.020;23.094;2023-03-31T07:12:26;10.20;;;4.45;;
22754;SDS011;11544;42.020;23.094;2023-03-31T07:14:52;11.23;;;5.25;;
22754;SDS011;11544;42.020;23.094;2023-03-31T07:17:20;18.52;;;4.63;;
22754;SDS011;11544;42.020;23.094;2023-03-31T07:19:52;9.50;;;4.45;;
22754;SDS011;11544;42.020;23.094;2023-03-31T07:22:21;10.70;;;4.45;;
22754;SDS011;11544;42.020;23.094;2023-03-31T07:24:48;11.60;;;5.13;;
22754;SDS011;11544;42.020;23.094;2023-03-31T07:27:15;13.35;;;4.43;;
22754;SDS011;11544;42.020;23.094;2023-03-31T07:29:42;7.28;;;4.10;;
22754;SDS011;11544;42.020;23.094;2023-03-31T07:32:30;8.85;;;4.13;;
22754;SDS011;11544;42.020;23.094;2023-03-31T07:35:13;8.40;;;3.88;;
22754;SDS011;11544;42.020;23.094;2023-03-31T07:37:41;9.55;;;3.92;;
22754;SDS011;11544;42.020;23.094;2023-03-31T07:40:20;6.60;;;3.25;;
22754;SDS011;11544;42.020;23.094;2023-03-31T07:42:52;8.27;;;3.72;;
22754;SDS011;11544;42.020;23.094;2023-03-31T07:45:21;8.73;;;3.25;;
22754;SDS011;11544;42.020;23.094;2023-03-31T07:47:51;5.95;;;2.95;;
22754;SDS011;11544;42.020;23.094;2023-03-31T07:50:22;8.07;;;3.45;;
22754;SDS011;11544;42.020;23.094;2023-03-31T07:52:57;6.78;;;3.13;;
22754;SDS011;11544;42.020;23.094;2023-03-31T07:55:29;6.53;;;2.85;;
22754;SDS011;11544;42.020;23.094;2023-03-31T07:57:58;7.63;;;3.00;;
22754;SDS011;11544;42.020;23.094;2023-03-31T08:00:25;10.95;;;4.15;;
22754;SDS011;11544;42.020;23.094;2023-03-31T08:02:52;8.75;;;3.28;;
22754;SDS011;11544;42.020;23.094;2023-03-31T08:05:50;10.88;;;4.13;;
22754;SDS011;11544;42.020;23.094;2023-03-31T08:08:18;7.30;;;3.03;;
22754;SDS011;11544;42.020;23.094;2023-03-31T08:10:50;5.88;;;2.92;;
22754;SDS011;11544;42.020;23.094;2023-03-31T08:13:17;4.45;;;2.75;;
22754;SDS011;11544;42.020;23.094;2023-03-31T08:15:44;24.63;;;12.77;;
22754;SDS011;11544;42.020;23.094;2023-03-31T08:18:12;6.88;;;2.83;;
22754;SDS011;11544;42.020;23.094;2023-03-31T08:20:39;7.72;;;2.65;;
22754;SDS011;11544;42.020;23.094;2023-03-31T08:23:06;7.43;;;2.95;;
22754;SDS011;11544;42.020;23.094;2023-03-31T08:25:37;7.90;;;2.40;;
22754;SDS011;11544;42.020;23.094;2023-03-31T08:28:04;5.60;;;2.47;;
22754;SDS011;11544;42.020;23.094;2023-03-31T08:30:42;2.95;;;1.92;;
22754;SDS011;11544;42.020;23.094;2023-03-31T08:33:14;2.90;;;1.70;;
22754;SDS011;11544;42.020;23.094;2023-03-31T08:35:55;3.97;;;1.67;;
22754;SDS011;11544;42.020;23.094;2023-03-31T08:38:22;3.25;;;1.63;;
22754;SDS011;11544;42.020;23.094;2023-03-31T08:40:58;7.32;;;2.00;;
22754;SDS011;11544;42.020;23.094;2023-03-31T08:43:32;8.60;;;2.20;;
22754;SDS011;11544;42.020;23.094;2023-03-31T08:46:05;3.33;;;1.83;;
22754;SDS011;11544;42.020;23.094;2023-03-31T08:48:51;2.83;;;1.65;;
22754;SDS011;11544;42.020;23.094;2023-03-31T08:51:23;4.38;;;2.17;;
22754;SDS011;11544;42.020;23.094;2023-03-31T08:53:58;7.00;;;1.80;;
22754;SDS011;11544;42.020;23.094;2023-03-31T08:56:29;4.57;;;1.75;;
22754;SDS011;11544;42.020;23.094;2023-03-31T09:02:20;8.02;;;2.45;;
22754;SDS011;11544;42.020;23.094;2023-03-31T09:07:53;2.75;;;1.58;;
22754;SDS011;11544;42.020;23.094;2023-03-31T09:11:10;6.28;;;2.65;;
22754;SDS011;11544;42.020;23.094;2023-03-31T09:13:53;5.85;;;2.60;;
22754;SDS011;11544;42.020;23.094;2023-03-31T09:19:48;6.47;;;1.90;;
22754;SDS011;11544;42.020;23.094;2023-03-31T09:22:23;4.85;;;1.88;;
22754;SDS011;11544;42.020;23.094;2023-03-31T09:27:36;5.10;;;1.88;;
22754;SDS011;11544;42.020;23.094;2023-03-31T09:30:13;4.18;;;1.73;;
22754;SDS011;11544;42.020;23.094;2023-03-31T09:32:50;4.68;;;1.65;;
22754;SDS011;11544;42.020;23.094;2023-03-31T09:35:23;3.28;;;1.65;;
22754;SDS011;11544;42.020;23.094;2023-03-31T09:37:52;7.30;;;1.90;;
22754;SDS011;11544;42.020;23.094;2023-03-31T09:40:37;3.63;;;1.70;;
22754;SDS011;11544;42.020;23.094;2023-03-31T09:43:26;6.55;;;1.98;;
22754;SDS011;11544;42.020;23.094;2023-03-31T09:46:00;4.32;;;1.98;;
22754;SDS011;11544;42.020;23.094;2023-03-31T09:49:20;3.83;;;1.80;;
22754;SDS011;11544;42.020;23.094;2023-03-31T09:51:57;7.68;;;3.00;;
22754;SDS011;11544;42.020;23.094;2023-03-31T09:54:52;6.30;;;2.53;;
22754;SDS011;11544;42.020;23.094;2023-03-31T09:58:05;3.95;;;2.00;;
22754;SDS011;11544;42.020;23.094;2023-03-31T10:00:36;6.43;;;2.63;;
22754;SDS011;11544;42.020;23.094;2023-03-31T10:03:18;5.35;;;2.13;;
22754;SDS011;11544;42.020;23.094;2023-03-31T10:05:49;13.30;;;2.75;;
22754;SDS011;11544;42.020;23.094;2023-03-31T10:10:57;5.30;;;2.03;;
22754;SDS011;11544;42.020;23.094;2023-03-31T10:13:45;6.50;;;2.17;;
22754;SDS011;11544;42.020;23.094;2023-03-31T10:16:22;16.73;;;4.93;;
22754;SDS011;11544;42.020;23.094;2023-03-31T10:22:13;6.25;;;3.15;;
22754;SDS011;11544;42.020;23.094;2023-03-31T10:24:46;5.35;;;2.08;;
22754;SDS011;11544;42.020;23.094;2023-03-31T10:27:27;2.88;;;1.63;;
22754;SDS011;11544;42.020;23.094;2023-03-31T10:29:59;3.80;;;1.75;;
22754;SDS011;11544;42.020;23.094;2023-03-31T10:32:29;4.50;;;1.55;;
22754;SDS011;11544;42.020;23.094;2023-03-31T10:35:03;3.22;;;1.63;;
22754;SDS011;11544;42.020;23.094;2023-03-31T10:37:32;2.80;;;1.67;;
22754;SDS011;11544;42.020;23.094;2023-03-31T10:40:04;4.07;;;1.42;;
22754;SDS011;11544;42.020;23.094;2023-03-31T10:42:57;2.50;;;1.50;;
22754;SDS011;11544;42.020;23.094;2023-03-31T10:45:30;5.95;;;1.63;;
22754;SDS011;11544;42.020;23.094;2023-03-31T10:48:22;4.25;;;1.60;;
22754;SDS011;11544;42.020;23.094;2023-03-31T10:51:09;4.90;;;1.02;;
22754;SDS011;11544;42.020;23.094;2023-03-31T10:53:54;3.33;;;1.33;;
22754;SDS011;11544;42.020;23.094;2023-03-31T11:07:11;4.50;;;1.90;;
22754;SDS011;11544;42.020;23.094;2023-03-31T11:13:47;4.03;;;1.77;;
22754;SDS011;11544;42.020;23.094;2023-03-31T11:16:39;3.78;;;1.30;;
22754;SDS011;11544;42.020;23.094;2023-03-31T11:22:06;4.63;;;1.15;;
22754;SDS011;11544;42.020;23.094;2023-03-31T11:25:26;2.42;;;1.30;;
22754;SDS011;11544;42.020;23.094;2023-03-31T11:32:15;6.35;;;1.42;;
22754;SDS011;11544;42.020;23.094;2023-03-31T11:38:22;3.47;;;1.05;;
22754;SDS011;11544;42.020;23.094;2023-03-31T11:46:37;3.38;;;1.45;;
22754;SDS011;11544;42.020;23.094;2023-03-31T11:49:28;3.63;;;1.52;;
22754;SDS011;11544;42.020;23.094;2023-03-31T11:52:24;3.40;;;1.13;;
22754;SDS011;11544;42.020;23.094;2023-03-31T11:55:49;4.78;;;1.77;;
22754;SDS011;11544;42.020;23.094;2023-03-31T11:58:24;5.22;;;1.45;;
22754;SDS011;11544;42.020;23.094;2023-03-31T12:01:20;4.28;;;1.50;;
22754;SDS011;11544;42.020;23.094;2023-03-31T12:04:08;5.85;;;1.23;;
22754;SDS011;11544;42.020;23.094;2023-03-31T12:06:40;3.65;;;1.40;;
22754;SDS011;11544;42.020;23.094;2023-03-31T12:14:30;2.78;;;1.10;;
22754;SDS011;11544;42.020;23.094;2023-03-31T12:17:14;3.60;;;1.50;;
22754;SDS011;11544;42.020;23.094;2023-03-31T12:19:56;4.15;;;1.42;;
22754;SDS011;11544;42.020;23.094;2023-03-31T12:22:40;3.17;;;1.60;;
22754;SDS011;11544;42.020;23.094;2023-03-31T12:25:13;3.88;;;1.38;;
22754;SDS011;11544;42.020;23.094;2023-03-31T12:27:43;2.33;;;1.23;;
22754;SDS011;11544;42.020;23.094;2023-03-31T12:33:36;4.53;;;1.80;;
22754;SDS011;11544;42.020;23.094;2023-03-31T12:42:02;4.00;;;2.05;;
22754;SDS011;11544;42.020;23.094;2023-03-31T12:48:14;3.88;;;1.63;;
22754;SDS011;11544;42.020;23.094;2023-03-31T12:56:04;2.83;;;1.13;;
22754;SDS011;11544;42.020;23.094;2023-03-31T12:58:39;4.03;;;1.27;;
22754;SDS011;11544;42.020;23.094;2023-03-31T13:06:50;12.43;;;1.83;;
22754;SDS011;11544;42.020;23.094;2023-03-31T13:12:06;2.97;;;1.40;;
22754;SDS011;11544;42.020;23.094;2023-03-31T13:14:35;4.45;;;1.83;;
22754;SDS011;11544;42.020;23.094;2023-03-31T13:17:13;6.25;;;1.52;;
22754;SDS011;11544;42.020;23.094;2023-03-31T13:19:53;3.78;;;1.70;;
22754;SDS011;11544;42.020;23.094;2023-03-31T13:30:45;4.47;;;1.00;;
22754;SDS011;11544;42.020;23.094;2023-03-31T13:35:45;6.20;;;1.73;;
22754;SDS011;11544;42.020;23.094;2023-03-31T13:55:39;4.45;;;2.03;;
22754;SDS011;11544;42.020;23.094;2023-03-31T14:13:11;5.38;;;1.80;;
22754;SDS011;11544;42.020;23.094;2023-03-31T14:18:23;3.15;;;1.60;;
22754;SDS011;11544;42.020;23.094;2023-03-31T14:29:53;6.13;;;1.80;;
22754;SDS011;11544;42.020;23.094;2023-03-31T14:35:42;4.22;;;1.55;;
22754;SDS011;11544;42.020;23.094;2023-03-31T14:38:21;3.83;;;1.20;;
22754;SDS011;11544;42.020;23.094;2023-03-31T14:40:50;4.93;;;1.55;;
22754;SDS011;11544;42.020;23.094;2023-03-31T14:43:24;7.10;;;1.83;;
22754;SDS011;11544;42.020;23.094;2023-03-31T14:45:57;3.22;;;1.33;;
22754;SDS011;11544;42.020;23.094;2023-03-31T14:48:38;2.70;;;1.10;;
22754;SDS011;11544;42.020;23.094;2023-03-31T14:51:12;4.45;;;1.83;;
22754;SDS011;11544;42.020;23.094;2023-03-31T14:53:41;2.63;;;1.30;;
22754;SDS011;11544;42.020;23.094;2023-03-31T14:56:13;6.63;;;1.50;;
22754;SDS011;11544;42.020;23.094;2023-03-31T14:58:46;1.67;;;1.15;;
22754;SDS011;11544;42.020;23.094;2023-03-31T15:01:17;7.72;;;1.80;;
22754;SDS011;11544;42.020;23.094;2023-03-31T15:03:53;3.13;;;1.45;;
22754;SDS011;11544;42.020;23.094;2023-03-31T15:06:24;2.67;;;1.38;;
22754;SDS011;11544;42.020;23.094;2023-03-31T15:08:53;3.60;;;1.20;;
22754;SDS011;11544;42.020;23.094;2023-03-31T15:11:23;1.70;;;1.33;;
22754;SDS011;11544;42.020;23.094;2023-03-31T15:13:54;2.13;;;1.65;;
22754;SDS011;11544;42.020;23.094;2023-03-31T15:16:40;4.63;;;1.33;;
22754;SDS011;11544;42.020;23.094;2023-03-31T15:19:21;2.75;;;1.17;;
22754;SDS011;11544;42.020;23.094;2023-03-31T15:21:58;3.40;;;1.27;;
22754;SDS011;11544;42.020;23.094;2023-03-31T15:24:27;3.92;;;1.40;;
22754;SDS011;11544;42.020;23.094;2023-03-31T15:27:06;4.13;;;1.20;;
22754;SDS011;11544;42.020;23.094;2023-03-31T15:32:15;3.75;;;1.40;;
22754;SDS011;11544;42.020;23.094;2023-03-31T15:34:56;1.52;;;1.10;;
22754;SDS011;11544;42.020;23.094;2023-03-31T15:38:02;4.78;;;1.40;;
22754;SDS011;11544;42.020;23.094;2023-03-31T15:43:20;4.70;;;1.75;;
22754;SDS011;11544;42.020;23.094;2023-03-31T15:45:58;3.83;;;1.52;;
22754;SDS011;11544;42.020;23.094;2023-03-31T15:48:30;3.17;;;1.48;;
22754;SDS011;11544;42.020;23.094;2023-03-31T15:51:05;2.15;;;1.30;;
22754;SDS011;11544;42.020;23.094;2023-03-31T15:53:48;3.22;;;1.83;;
22754;SDS011;11544;42.020;23.094;2023-03-31T15:56:27;3.85;;;1.50;;
22754;SDS011;11544;42.020;23.094;2023-03-31T15:59:01;6.65;;;1.60;;
22754;SDS011;11544;42.020;23.094;2023-03-31T16:01:31;4.40;;;1.67;;
22754;SDS011;11544;42.020;23.094;2023-03-31T16:04:10;4.45;;;1.42;;
22754;SDS011;11544;42.020;23.094;2023-03-31T16:10:34;2.03;;;1.33;;
22754;SDS011;11544;42.020;23.094;2023-03-31T16:13:07;3.92;;;1.65;;
22754;SDS011;11544;42.020;23.094;2023-03-31T16:15:52;5.47;;;1.35;;
22754;SDS011;11544;42.020;23.094;2023-03-31T16:18:29;2.92;;;1.55;;
22754;SDS011;11544;42.020;23.094;2023-03-31T16:21:02;4.15;;;1.80;;
22754;SDS011;11544;42.020;23.094;2023-03-31T16:27:14;9.07;;;1.80;;
22754;SDS011;11544;42.020;23.094;2023-03-31T16:29:48;4.13;;;1.65;;
22754;SDS011;11544;42.020;23.094;2023-03-31T16:34:57;8.23;;;4.97;;
22754;SDS011;11544;42.020;23.094;2023-03-31T16:41:34;10.52;;;4.07;;
22754;SDS011;11544;42.020;23.094;2023-03-31T16:50:48;14.10;;;5.32;;
22754;SDS011;11544;42.020;23.094;2023-03-31T16:53:36;14.80;;;6.90;;
22754;SDS011;11544;42.020;23.094;2023-03-31T16:56:07;13.73;;;6.13;;
22754;SDS011;11544;42.020;23.094;2023-03-31T16:58:44;7.97;;;4.35;;
22754;SDS011;11544;42.020;23.094;2023-03-31T17:10:13;8.45;;;3.25;;
22754;SDS011;11544;42.020;23.094;2023-03-31T17:12:41;5.90;;;2.30;;
22754;SDS011;11544;42.020;23.094;2023-03-31T17:15:09;6.90;;;2.58;;
22754;SDS011;11544;42.020;23.094;2023-03-31T17:17:36;8.70;;;1.92;;
22754;SDS011;11544;42.020;23.094;2023-03-31T17:20:05;5.15;;;2.20;;
22754;SDS011;11544;42.020;23.094;2023-03-31T17:22:34;4.45;;;1.70;;
22754;SDS011;11544;42.020;23.094;2023-03-31T17:25:02;3.67;;;1.90;;
22754;SDS011;11544;42.020;23.094;2023-03-31T17:27:30;3.63;;;2.28;;
22754;SDS011;11544;42.020;23.094;2023-03-31T17:29:58;5.32;;;2.60;;
22754;SDS011;11544;42.020;23.094;2023-03-31T17:32:24;8.23;;;2.70;;
22754;SDS011;11544;42.020;23.094;2023-03-31T17:34:53;5.43;;;2.72;;
22754;SDS011;11544;42.020;23.094;2023-03-31T17:37:19;5.22;;;2.88;;
22754;SDS011;11544;42.020;23.094;2023-03-31T17:39:46;5.50;;;2.45;;
22754;SDS011;11544;42.020;23.094;2023-03-31T17:42:13;7.10;;;2.55;;
22754;SDS011;11544;42.020;23.094;2023-03-31T17:44:43;4.97;;;1.80;;
22754;SDS011;11544;42.020;23.094;2023-03-31T17:47:12;3.42;;;1.90;;
22754;SDS011;11544;42.020;23.094;2023-03-31T17:49:46;4.50;;;2.03;;
22754;SDS011;11544;42.020;23.094;2023-03-31T17:52:14;4.20;;;2.03;;
22754;SDS011;11544;42.020;23.094;2023-03-31T17:54:42;3.92;;;2.15;;
22754;SDS011;11544;42.020;23.094;2023-03-31T17:57:11;4.30;;;1.85;;
22754;SDS011;11544;42.020;23.094;2023-03-31T17:59:38;4.60;;;1.75;;
22754;SDS011;11544;42.020;23.094;2023-03-31T18:02:05;5.13;;;2.40;;
22754;SDS011;11544;42.020;23.094;2023-03-31T18:04:33;4.55;;;2.10;;
22754;SDS011;11544;42.020;23.094;2023-03-31T18:07:02;3.85;;;1.73;;
22754;SDS011;11544;42.020;23.094;2023-03-31T18:09:29;7.47;;;3.33;;
22754;SDS011;11544;42.020;23.094;2023-03-31T18:11:56;2.47;;;1.77;;
22754;SDS011;11544;42.020;23.094;2023-03-31T18:14:27;5.10;;;2.55;;
22754;SDS011;11544;42.020;23.094;2023-03-31T18:16:54;8.55;;;2.90;;
22754;SDS011;11544;42.020;23.094;2023-03-31T18:19:21;9.68;;;2.88;;
22754;SDS011;11544;42.020;23.094;2023-03-31T18:21:50;9.07;;;4.25;;
22754;SDS011;11544;42.020;23.094;2023-03-31T18:24:16;12.60;;;5.10;;
22754;SDS011;11544;42.020;23.094;2023-03-31T18:26:45;14.85;;;7.15;;
22754;SDS011;11544;42.020;23.094;2023-03-31T18:29:12;13.85;;;7.20;;
22754;SDS011;11544;42.020;23.094;2023-03-31T18:31:40;17.25;;;6.38;;
22754;SDS011;11544;42.020;23.094;2023-03-31T18:34:07;8.52;;;4.63;;
22754;SDS011;11544;42.020;23.094;2023-03-31T18:36:34;7.47;;;4.03;;
22754;SDS011;11544;42.020;23.094;2023-03-31T18:39:01;4.60;;;2.30;;
22754;SDS011;11544;42.020;23.094;2023-03-31T18:41:43;4.05;;;1.90;;
22754;SDS011;11544;42.020;23.094;2023-03-31T18:44:14;5.20;;;2.03;;